Time,TemperatureF,DewpointF,PressureIn,WindDirection,WindDirectionDegrees,WindSpeedMPH,WindSpeedGustMPH,Humidity,HourlyPrecipIn,Conditions,Clouds,dailyrainin,SoftwareType,DateUTC
2013-06-21 00:02:00,71.8,63.8,30.04,North,6,32.0,36.0,76,0.00,,,0.00,Weather View 32 v70,2013-06-21 10:02:00,
2013-06-21 00:07:00,71.5,63.9,30.04,NNW,348,29.0,38.0,77,0.00,,,0.00,Weather View 32 v70,2013-06-21 10:07:00,
2013-06-21 00:12:00,71.3,64.1,30.06,NNE,20,18.0,38.0,78,0.00,,,0.00,Weather View 32 v70,2013-06-21 10:12:00,
2013-06-21 00:17:00,71.3,64.1,30.04,North,11,22.0,38.0,78,0.00,,,0.00,Weather View 32 v70,2013-06-21 10:17:00,
2013-06-21 00:22:00,71.2,64.0,30.05,NNW,334,25.0,38.0,78,0.00,,,0.00,Weather View 32 v70,2013-06-21 10:22:00,
2013-06-21 00:27:00,71.4,63.8,30.05,North,352,23.0,38.0,77,0.00,,,0.00,Weather View 32 v70,2013-06-21 10:27:00,
2013-06-21 00:32:00,71.3,64.4,30.05,NNE,16,23.0,38.0,79,0.00,,,0.00,Weather View 32 v70,2013-06-21 10:32:00,
2013-06-21 00:37:00,71.1,64.6,30.04,North,6,19.0,38.0,80,0.00,,,0.00,Weather View 32 v70,2013-06-21 10:37:00,
2013-06-21 00:42:00,70.9,64.4,30.05,NNE,16,16.0,38.0,80,0.00,,,0.00,Weather View 32 v70,2013-06-21 10:42:00,
2013-06-21 00:47:00,70.9,64.4,30.04,NNW,341,23.0,38.0,80,0.00,,,0.00,Weather View 32 v70,2013-06-21 10:47:00,
2013-06-21 00:52:00,71.2,64.3,30.04,North,7,22.0,38.0,79,0.00,,,0.00,Weather View 32 v70,2013-06-21 10:52:00,
2013-06-21 00:57:00,71.9,64.3,30.05,NNW,335,10.0,38.0,77,0.00,,,0.00,Weather View 32 v70,2013-06-21 10:57:00,
2013-06-21 01:02:00,71.8,63.8,30.05,North,3,11.0,38.0,76,0.00,,,0.00,Weather View 32 v70,2013-06-21 11:02:00,
2013-06-21 01:07:00,71.6,63.2,30.04,North,351,26.0,35.0,75,0.00,,,0.00,Weather View 32 v70,2013-06-21 11:07:00,
2013-06-21 01:12:00,71.1,63.5,30.03,NNE,12,25.0,35.0,77,0.00,,,0.00,Weather View 32 v70,2013-06-21 11:12:00,
2013-06-21 01:17:00,70.7,63.8,30.04,North,358,23.0,35.0,79,0.00,,,0.00,Weather View 32 v70,2013-06-21 11:17:00,
2013-06-21 01:22:00,70.6,64.1,30.03,North,5,27.0,38.0,80,0.00,,,0.00,Weather View 32 v70,2013-06-21 11:22:00,
2013-06-21 01:27:00,70.8,63.2,30.04,NNW,341,17.0,38.0,77,0.00,,,0.00,Weather View 32 v70,2013-06-21 11:27:00,
2013-06-21 01:32:00,70.7,63.1,30.04,NNW,334,16.0,38.0,77,0.00,,,0.00,Weather View 32 v70,2013-06-21 11:32:00,
2013-06-21 01:37:00,70.7,63.5,30.03,NNE,19,22.0,38.0,78,0.00,,,0.00,Weather View 32 v70,2013-06-21 11:37:00,
2013-06-21 01:42:00,70.7,63.5,30.04,North,350,22.0,38.0,78,0.00,,,0.00,Weather View 32 v70,2013-06-21 11:42:00,
2013-06-21 01:47:00,70.6,63.4,30.04,NNE,20,8.0,38.0,78,0.00,,,0.00,Weather View 32 v70,2013-06-21 11:47:00,
2013-06-21 01:52:00,70.3,63.5,30.04,North,2,13.0,38.0,79,0.00,,,0.00,Weather View 32 v70,2013-06-21 11:52:00,
2013-06-21 01:57:00,70.4,63.6,30.03,NW,320,23.0,38.0,79,0.00,,,0.00,Weather View 32 v70,2013-06-21 11:57:00,
2013-06-21 02:02:00,71.2,63.6,30.04,NW,306,15.0,38.0,77,0.00,,,0.00,Weather View 32 v70,2013-06-21 12:02:00,
2013-06-21 02:07:00,71.7,63.3,30.04,WNW,299,15.0,38.0,75,0.00,,,0.00,Weather View 32 v70,2013-06-21 12:07:00,
2013-06-21 02:12:00,72.3,62.7,30.03,North,1,30.0,38.0,72,0.00,,,0.00,Weather View 32 v70,2013-06-21 12:12:00,
2013-06-21 02:17:00,71.7,62.9,30.02,NNW,344,27.0,38.0,74,0.00,,,0.00,Weather View 32 v70,2013-06-21 12:17:00,
2013-06-21 02:22:00,71.4,62.7,30.03,NNE,13,23.0,34.0,74,0.00,,,0.00,Weather View 32 v70,2013-06-21 12:22:00,
2013-06-21 02:27:00,71.8,62.6,30.03,NNE,14,22.0,34.0,73,0.00,,,0.00,Weather View 32 v70,2013-06-21 12:27:00,
2013-06-21 02:32:00,72.3,62.7,30.03,NNW,334,17.0,34.0,72,0.00,,,0.00,Weather View 32 v70,2013-06-21 12:32:00,
2013-06-21 02:37:00,72.4,62.4,30.03,North,351,24.0,34.0,71,0.00,,,0.00,Weather View 32 v70,2013-06-21 12:37:00,
2013-06-21 02:42:00,72.9,62.1,30.01,North,357,22.0,34.0,69,0.00,,,0.00,Weather View 32 v70,2013-06-21 12:42:00,
2013-06-21 02:47:00,73.3,62.1,30.02,North,350,11.0,34.0,68,0.00,,,0.00,Weather View 32 v70,2013-06-21 12:47:00,
2013-06-21 02:52:00,73.2,62.0,30.02,North,357,21.0,34.0,68,0.00,,,0.00,Weather View 32 v70,2013-06-21 12:52:00,
2013-06-21 02:57:00,72.8,62.0,30.02,NNW,345,17.0,34.0,69,0.00,,,0.00,Weather View 32 v70,2013-06-21 12:57:00,
2013-06-21 03:02:00,72.2,62.6,30.02,NNW,335,17.0,34.0,72,0.00,,,0.00,Weather View 32 v70,2013-06-21 13:02:00,
2013-06-21 03:07:00,71.9,62.7,30.01,North,351,24.0,34.0,73,0.00,,,0.00,Weather View 32 v70,2013-06-21 13:07:00,
2013-06-21 03:12:00,71.7,62.9,30.02,North,351,27.0,34.0,74,0.00,,,0.00,Weather View 32 v70,2013-06-21 13:12:00,
2013-06-21 03:17:00,71.6,63.6,30.02,North,6,24.0,39.0,76,0.00,,,0.00,Weather View 32 v70,2013-06-21 13:17:00,
2013-06-21 03:22:00,71.4,63.4,30.02,North,355,25.0,39.0,76,0.00,,,0.00,Weather View 32 v70,2013-06-21 13:22:00,
2013-06-21 03:27:00,71.3,63.3,30.01,North,359,27.0,39.0,76,0.00,,,0.00,Weather View 32 v70,2013-06-21 13:27:00,
2013-06-21 03:32:00,71.6,63.6,30.02,NNE,16,26.0,39.0,76,0.00,,,0.00,Weather View 32 v70,2013-06-21 13:32:00,
2013-06-21 03:37:00,72.0,63.2,30.03,North,2,22.0,39.0,74,0.00,,,0.00,Weather View 32 v70,2013-06-21 13:37:00,
2013-06-21 03:42:00,71.8,63.4,30.02,North,353,21.0,39.0,75,0.00,,,0.00,Weather View 32 v70,2013-06-21 13:42:00,
2013-06-21 03:47:00,71.7,63.3,30.02,NNW,341,29.0,39.0,75,0.00,,,0.00,Weather View 32 v70,2013-06-21 13:47:00,
2013-06-21 03:52:00,71.8,63.4,30.02,NNW,337,22.0,39.0,75,0.00,,,0.00,Weather View 32 v70,2013-06-21 13:52:00,
2013-06-21 03:57:00,72.3,63.1,30.02,NNE,14,19.0,39.0,73,0.00,,,0.00,Weather View 32 v70,2013-06-21 13:57:00,
2013-06-21 04:03:00,72.3,62.7,30.02,North,352,24.0,39.0,72,0.00,,,0.00,Weather View 32 v70,2013-06-21 14:03:00,
2013-06-21 04:08:00,72.3,62.7,30.02,NNW,347,27.0,39.0,72,0.00,,,0.00,Weather View 32 v70,2013-06-21 14:08:00,
2013-06-21 04:13:00,72.4,62.8,30.00,NNW,347,31.0,39.0,72,0.00,,,0.00,Weather View 32 v70,2013-06-21 14:13:00,
2013-06-21 04:18:00,72.0,63.2,30.02,NNE,21,21.0,37.0,74,0.00,,,0.00,Weather View 32 v70,2013-06-21 14:18:00,
2013-06-21 04:23:00,71.7,63.3,30.02,North,358,24.0,37.0,75,0.00,,,0.00,Weather View 32 v70,2013-06-21 14:23:00,
2013-06-21 04:28:00,72.2,63.4,30.02,NNW,345,25.0,37.0,74,0.00,,,0.00,Weather View 32 v70,2013-06-21 14:28:00,
2013-06-21 04:33:00,72.0,63.2,30.03,North,4,12.0,37.0,74,0.00,,,0.00,Weather View 32 v70,2013-06-21 14:33:00,
2013-06-21 04:38:00,72.1,63.3,30.02,NNW,339,22.0,37.0,74,0.00,,,0.00,Weather View 32 v70,2013-06-21 14:38:00,
2013-06-21 04:43:00,72.1,63.3,30.02,NNW,347,25.0,38.0,74,0.00,,,0.00,Weather View 32 v70,2013-06-21 14:43:00,
2013-06-21 04:48:00,72.1,63.3,30.02,NW,318,22.0,38.0,74,0.00,,,0.00,Weather View 32 v70,2013-06-21 14:48:00,
2013-06-21 04:53:00,71.6,64.0,30.03,NNW,343,22.0,38.0,77,0.00,,,0.00,Weather View 32 v70,2013-06-21 14:53:00,
2013-06-21 04:58:00,71.3,64.1,30.03,NNW,339,21.0,38.0,78,0.00,,,0.00,Weather View 32 v70,2013-06-21 14:58:00,
2013-06-21 05:03:00,71.3,64.4,30.02,North,350,21.0,38.0,79,0.00,,,0.00,Weather View 32 v70,2013-06-21 15:03:00,
2013-06-21 05:08:00,71.2,64.3,30.03,NNE,16,22.0,38.0,79,0.00,,,0.00,Weather View 32 v70,2013-06-21 15:08:00,
2013-06-21 05:13:00,71.3,64.4,30.01,North,358,29.0,38.0,79,0.00,,,0.00,Weather View 32 v70,2013-06-21 15:13:00,
2013-06-21 05:18:00,71.0,64.5,30.02,North,9,21.0,38.0,80,0.00,,,0.00,Weather View 32 v70,2013-06-21 15:18:00,
2013-06-21 05:23:00,70.7,65.3,30.03,North,1,18.0,38.0,83,0.00,,,0.00,Weather View 32 v70,2013-06-21 15:23:00,
2013-06-21 05:28:00,70.6,64.8,30.02,North,357,27.0,38.0,82,0.00,,,0.00,Weather View 32 v70,2013-06-21 15:28:00,
2013-06-21 05:33:00,70.5,64.7,30.02,NNE,16,20.0,38.0,82,0.00,,,0.00,Weather View 32 v70,2013-06-21 15:33:00,
2013-06-21 05:38:00,70.8,64.3,30.02,NNW,348,31.0,38.0,80,0.00,,,0.00,Weather View 32 v70,2013-06-21 15:38:00,
2013-06-21 05:43:00,70.7,64.9,30.03,NNW,344,22.0,38.0,82,0.00,,,0.00,Weather View 32 v70,2013-06-21 15:43:00,
2013-06-21 05:48:00,70.7,64.6,30.02,North,360,28.0,38.0,81,0.00,,,0.00,Weather View 32 v70,2013-06-21 15:48:00,
2013-06-21 05:53:00,70.5,64.4,30.03,North,357,19.0,38.0,81,0.00,,,0.00,Weather View 32 v70,2013-06-21 15:53:00,
2013-06-21 05:58:00,70.5,64.4,30.03,North,6,28.0,38.0,81,0.00,,,0.00,Weather View 32 v70,2013-06-21 15:58:00,
2013-06-21 06:03:00,70.6,64.1,30.03,North,355,28.0,38.0,80,0.00,,,0.00,Weather View 32 v70,2013-06-21 16:03:00,
2013-06-21 06:08:00,70.6,64.1,30.02,North,1,20.0,38.0,80,0.00,,,0.00,Weather View 32 v70,2013-06-21 16:08:00,
2013-06-21 06:15:00,70.5,64.4,30.02,North,355,25.0,38.0,81,0.00,,,0.00,Weather View 32 v70,2013-06-21 16:15:00,
2013-06-21 06:25:00,70.7,65.3,30.04,NNE,14,27.0,35.0,83,0.00,,,0.00,Weather View 32 v70,2013-06-21 16:25:00,
2013-06-21 06:30:00,70.4,65.0,30.04,North,349,21.0,35.0,83,0.00,,,0.00,Weather View 32 v70,2013-06-21 16:30:00,
2013-06-21 06:35:00,70.5,65.1,30.04,NE,39,19.0,36.0,83,0.00,,,0.00,Weather View 32 v70,2013-06-21 16:35:00,
2013-06-21 06:40:00,70.8,65.4,30.04,NNW,334,18.0,36.0,83,0.00,,,0.00,Weather View 32 v70,2013-06-21 16:40:00,
2013-06-21 06:45:00,71.1,65.3,30.03,NNW,341,25.0,36.0,82,0.00,,,0.00,Weather View 32 v70,2013-06-21 16:45:00,
2013-06-21 06:50:00,71.2,65.4,30.05,North,8,19.0,36.0,82,0.00,,,0.00,Weather View 32 v70,2013-06-21 16:50:00,
2013-06-21 06:55:00,71.2,65.4,30.04,NNW,328,17.0,36.0,82,0.00,,,0.00,Weather View 32 v70,2013-06-21 16:55:00,
2013-06-21 07:00:00,71.5,65.3,30.05,NE,36,18.0,36.0,81,0.00,,,0.00,Weather View 32 v70,2013-06-21 17:00:00,
2013-06-21 07:05:00,71.6,64.0,30.03,North,356,27.0,36.0,77,0.00,,,0.00,Weather View 32 v70,2013-06-21 17:05:00,
2013-06-21 07:11:00,71.7,64.1,30.03,North,4,24.0,36.0,77,0.00,,,0.00,Weather View 32 v70,2013-06-21 17:11:00,
2013-06-21 07:16:00,71.9,64.3,30.03,NNE,15,23.0,36.0,77,0.00,,,0.00,Weather View 32 v70,2013-06-21 17:16:00,
2013-06-21 07:21:00,71.7,64.1,30.06,North,4,28.0,36.0,77,0.00,,,0.00,Weather View 32 v70,2013-06-21 17:21:00,
2013-06-21 07:27:00,71.2,64.3,30.05,North,351,20.0,39.0,79,0.00,,,0.00,Weather View 32 v70,2013-06-21 17:27:00,
2013-06-21 07:32:00,70.9,64.8,30.05,North,352,19.0,39.0,81,0.00,,,0.00,Weather View 32 v70,2013-06-21 17:32:00,
2013-06-21 07:40:00,70.4,65.3,30.05,NNE,30,24.0,39.0,84,0.00,,,0.00,Weather View 32 v70,2013-06-21 17:40:00,
2013-06-21 07:45:00,69.5,65.1,30.06,NNE,20,18.0,39.0,86,0.00,,,0.00,Weather View 32 v70,2013-06-21 17:45:00,
2013-06-21 07:50:00,69.1,65.1,30.06,North,3,20.0,39.0,87,0.00,,,0.00,Weather View 32 v70,2013-06-21 17:50:00,
2013-06-21 07:55:00,69.2,65.5,30.07,North,353,18.0,39.0,88,0.00,,,0.00,Weather View 32 v70,2013-06-21 17:55:00,
2013-06-21 07:59:00,69.4,65.7,30.07,North,1,15.0,39.0,88,0.00,,,0.00,Weather View 32 v70,2013-06-21 17:59:00,
2013-06-21 08:00:00,69.4,65.7,30.07,North,349,15.0,39.0,88,0.00,,,0.00,Weather View 32 v70,2013-06-21 18:00:00,
2013-06-21 08:05:00,69.1,65.7,30.06,NNW,345,19.0,39.0,89,0.00,,,0.00,Weather View 32 v70,2013-06-21 18:05:00,
2013-06-21 08:10:00,69.0,65.6,30.05,NNW,340,11.0,39.0,89,0.00,,,0.00,Weather View 32 v70,2013-06-21 18:10:00,
2013-06-21 08:15:00,69.7,66.0,30.05,North,6,27.0,39.0,88,0.00,,,0.00,Weather View 32 v70,2013-06-21 18:15:00,
2013-06-21 08:20:00,70.2,65.8,30.05,North,349,34.0,39.0,86,0.00,,,0.00,Weather View 32 v70,2013-06-21 18:20:00,
2013-06-21 08:21:00,70.2,65.8,30.03,NNW,340,32.0,39.0,86,0.00,,,0.00,Weather View 32 v70,2013-06-21 18:21:00,
2013-06-21 08:23:00,70.5,66.4,30.05,NNE,24,25.0,39.0,87,0.00,,,0.00,Weather View 32 v70,2013-06-21 18:23:00,
2013-06-21 08:24:00,70.6,66.5,30.05,North,3,31.0,39.0,87,0.00,,,0.00,Weather View 32 v70,2013-06-21 18:24:00,
2013-06-21 08:25:00,70.6,66.2,30.03,NNW,347,23.0,39.0,86,0.00,,,0.00,Weather View 32 v70,2013-06-21 18:25:00,
2013-06-21 08:29:00,70.8,65.7,30.04,North,349,28.0,37.0,84,0.00,,,0.00,Weather View 32 v70,2013-06-21 18:29:00,
2013-06-21 08:30:00,70.8,65.7,30.04,NNW,348,15.0,37.0,84,0.00,,,0.00,Weather View 32 v70,2013-06-21 18:30:00,
2013-06-21 08:35:00,71.3,65.8,30.03,NNW,327,19.0,37.0,83,0.00,,,0.00,Weather View 32 v70,2013-06-21 18:35:00,
2013-06-21 08:41:00,71.5,65.7,30.04,North,352,28.0,37.0,82,0.00,,,0.00,Weather View 32 v70,2013-06-21 18:41:00,
2013-06-21 08:45:00,71.6,65.8,30.05,NNE,12,30.0,37.0,82,0.00,,,0.00,Weather View 32 v70,2013-06-21 18:45:00,
2013-06-21 08:46:00,71.6,65.8,30.05,North,1,24.0,37.0,82,0.00,,,0.00,Weather View 32 v70,2013-06-21 18:46:00,
2013-06-21 08:53:00,72.2,66.0,30.05,North,6,29.0,37.0,81,0.00,,,0.00,Weather View 32 v70,2013-06-21 18:53:00,
2013-06-21 08:59:00,72.6,66.8,30.05,North,360,22.0,37.0,82,0.00,,,0.00,Weather View 32 v70,2013-06-21 18:59:00,
2013-06-21 09:12:00,72.4,66.2,30.06,NNW,341,21.0,37.0,81,0.00,,,0.00,Weather View 32 v70,2013-06-21 19:12:00,
2013-06-21 09:20:00,72.6,66.1,30.06,North,6,18.0,37.0,80,0.00,,,0.00,Weather View 32 v70,2013-06-21 19:20:00,
2013-06-21 09:29:00,72.3,65.4,30.07,NNW,330,25.0,36.0,79,0.00,,,0.00,Weather View 32 v70,2013-06-21 19:29:00,
2013-06-21 09:35:00,71.9,65.4,30.06,North,357,12.0,36.0,80,0.00,,,0.00,Weather View 32 v70,2013-06-21 19:35:00,
2013-06-21 09:40:00,71.9,65.7,30.07,NNE,23,20.0,35.0,81,0.00,,,0.00,Weather View 32 v70,2013-06-21 19:40:00,
2013-06-21 09:47:00,71.3,65.8,30.06,North,5,19.0,34.0,83,0.00,,,0.00,Weather View 32 v70,2013-06-21 19:47:00,
2013-06-21 09:48:00,71.3,65.5,30.06,NNE,22,26.0,32.0,82,0.00,,,0.00,Weather View 32 v70,2013-06-21 19:48:00,
2013-06-21 09:54:00,71.0,66.6,30.06,North,10,23.0,34.0,86,0.00,,,0.00,Weather View 32 v70,2013-06-21 19:54:00,
2013-06-21 09:59:00,70.6,66.2,30.05,North,357,29.0,34.0,86,0.00,,,0.00,Weather View 32 v70,2013-06-21 19:59:00,
2013-06-21 10:05:00,70.3,65.6,30.05,NNW,335,24.0,34.0,85,0.00,,,0.00,Weather View 32 v70,2013-06-21 20:05:00,
2013-06-21 10:10:00,70.5,65.4,30.06,North,8,22.0,34.0,84,0.00,,,0.00,Weather View 32 v70,2013-06-21 20:10:00,
2013-06-21 10:11:00,70.7,65.6,30.06,North,10,15.0,34.0,84,0.00,,,0.00,Weather View 32 v70,2013-06-21 20:11:00,
2013-06-21 10:16:00,71.3,65.8,30.05,North,10,22.0,34.0,83,0.00,,,0.00,Weather View 32 v70,2013-06-21 20:16:00,
2013-06-21 10:18:00,71.3,65.8,30.05,NNW,329,12.0,34.0,83,0.00,,,0.00,Weather View 32 v70,2013-06-21 20:18:00,
2013-06-21 10:23:00,71.4,66.3,30.06,North,353,17.0,34.0,84,0.00,,,0.00,Weather View 32 v70,2013-06-21 20:23:00,
2013-06-21 10:25:00,71.5,66.4,30.06,NNW,335,15.0,34.0,84,0.00,,,0.00,Weather View 32 v70,2013-06-21 20:25:00,
2013-06-21 10:29:00,71.5,66.4,30.06,NNE,14,21.0,34.0,84,0.00,,,0.00,Weather View 32 v70,2013-06-21 20:29:00,
2013-06-21 10:35:00,71.1,66.7,30.04,NNE,28,24.0,34.0,86,0.00,,,0.00,Weather View 32 v70,2013-06-21 20:35:00,
2013-06-21 10:41:00,70.2,66.1,30.06,North,1,26.0,34.0,87,0.00,,,0.00,Weather View 32 v70,2013-06-21 20:41:00,
2013-06-21 10:45:00,70.0,65.9,30.06,North,353,24.0,34.0,87,0.00,,,0.00,Weather View 32 v70,2013-06-21 20:45:00,
2013-06-21 10:49:00,70.3,66.6,30.05,North,1,25.0,34.0,88,0.00,,,0.00,Weather View 32 v70,2013-06-21 20:49:00,
2013-06-21 10:50:00,70.2,66.1,30.05,North,359,18.0,34.0,87,0.00,,,0.00,Weather View 32 v70,2013-06-21 20:50:00,
2013-06-21 10:54:00,70.5,66.4,30.06,NNE,16,15.0,34.0,87,0.00,,,0.00,Weather View 32 v70,2013-06-21 20:54:00,
2013-06-21 11:00:00,70.6,66.2,30.06,NNE,12,12.0,34.0,86,0.00,,,0.00,Weather View 32 v70,2013-06-21 21:00:00,
2013-06-21 11:05:00,71.3,66.2,30.06,NNW,334,18.0,34.0,84,0.00,,,0.00,Weather View 32 v70,2013-06-21 21:05:00,
2013-06-21 11:10:00,71.5,66.4,30.06,North,351,28.0,34.0,84,0.00,,,0.00,Weather View 32 v70,2013-06-21 21:10:00,
2013-06-21 11:15:00,71.5,66.7,30.06,North,359,21.0,34.0,85,0.00,,,0.00,Weather View 32 v70,2013-06-21 21:15:00,
2013-06-21 11:20:00,71.4,66.6,30.06,North,6,21.0,34.0,85,0.00,,,0.00,Weather View 32 v70,2013-06-21 21:20:00,
2013-06-21 11:25:00,71.0,66.6,30.06,North,5,12.0,34.0,86,0.00,,,0.00,Weather View 32 v70,2013-06-21 21:25:00,
2013-06-21 11:31:00,71.5,67.4,30.05,NNW,328,18.0,34.0,87,0.00,,,0.00,Weather View 32 v70,2013-06-21 21:31:00,
2013-06-21 11:38:00,71.4,65.9,30.05,NNE,28,14.0,34.0,83,0.00,,,0.00,Weather View 32 v70,2013-06-21 21:38:00,
2013-06-21 11:43:00,71.8,66.0,30.05,NNW,328,28.0,34.0,82,0.00,,,0.00,Weather View 32 v70,2013-06-21 21:43:00,
2013-06-21 11:50:00,72.5,66.0,30.05,NW,319,15.0,34.0,80,0.00,,,0.00,Weather View 32 v70,2013-06-21 21:50:00,
2013-06-21 12:00:00,73.3,66.0,30.05,North,6,8.0,34.0,78,0.00,,,0.00,Weather View 32 v70,2013-06-21 22:00:00,
2013-06-21 12:05:00,73.5,66.2,30.04,NNW,330,23.0,34.0,78,0.00,,,0.00,Weather View 32 v70,2013-06-21 22:05:00,
2013-06-21 12:11:00,73.7,66.4,30.04,NNE,12,20.0,32.0,78,0.00,,,0.00,Weather View 32 v70,2013-06-21 22:11:00,
2013-06-21 12:16:00,73.1,66.2,30.04,NNE,18,18.0,32.0,79,0.00,,,0.00,Weather View 32 v70,2013-06-21 22:16:00,
2013-06-21 12:21:00,73.7,66.4,30.04,NW,318,14.0,30.0,78,0.00,,,0.00,Weather View 32 v70,2013-06-21 22:21:00,
2013-06-21 12:26:00,73.6,66.3,30.03,NNW,338,24.0,30.0,78,0.00,,,0.00,Weather View 32 v70,2013-06-21 22:26:00,
2013-06-21 12:32:00,73.5,66.6,30.02,NE,40,18.0,30.0,79,0.00,,,0.00,Weather View 32 v70,2013-06-21 22:32:00,
2013-06-21 12:35:00,73.6,66.7,30.03,NNE,22,24.0,30.0,79,0.00,,,0.00,Weather View 32 v70,2013-06-21 22:35:00,
2013-06-21 12:37:00,73.7,66.4,30.03,NNW,330,15.0,30.0,78,0.00,,,0.00,Weather View 32 v70,2013-06-21 22:37:00,
2013-06-21 12:43:00,73.0,65.7,30.03,NNW,339,14.0,30.0,78,0.00,,,0.00,Weather View 32 v70,2013-06-21 22:43:00,
2013-06-21 12:50:00,72.7,66.1,30.03,North,6,20.0,29.0,80,0.00,,,0.00,Weather View 32 v70,2013-06-21 22:50:00,
2013-06-21 12:55:00,72.5,65.6,30.03,NNE,13,22.0,32.0,79,0.00,,,0.00,Weather View 32 v70,2013-06-21 22:55:00,
2013-06-21 13:00:00,72.8,65.5,30.03,North,10,16.0,32.0,78,0.00,,,0.00,Weather View 32 v70,2013-06-21 23:00:00,
2013-06-21 13:05:00,72.8,65.5,30.02,NNE,15,21.0,32.0,78,0.00,,,0.00,Weather View 32 v70,2013-06-21 23:05:00,
2013-06-21 13:11:00,73.3,65.6,30.02,North,6,24.0,32.0,77,0.00,,,0.00,Weather View 32 v70,2013-06-21 23:11:00,
2013-06-21 13:16:00,73.3,66.0,30.01,NNE,18,14.0,32.0,78,0.00,,,0.00,Weather View 32 v70,2013-06-21 23:16:00,
2013-06-21 13:20:00,73.2,66.3,30.00,North,360,27.0,32.0,79,0.00,,,0.00,Weather View 32 v70,2013-06-21 23:20:00,
2013-06-21 13:23:00,73.1,66.2,30.01,North,5,20.0,32.0,79,0.00,,,0.00,Weather View 32 v70,2013-06-21 23:23:00,
2013-06-21 13:28:00,73.0,66.8,30.00,NNE,30,25.0,37.0,81,0.00,,,0.00,Weather View 32 v70,2013-06-21 23:28:00,
2013-06-21 13:34:00,72.3,66.8,30.00,North,359,24.0,37.0,83,0.00,,,0.00,Weather View 32 v70,2013-06-21 23:34:00,
2013-06-21 13:39:00,72.2,66.7,30.01,North,354,20.0,37.0,83,0.00,,,0.00,Weather View 32 v70,2013-06-21 23:39:00,
2013-06-21 13:44:00,72.7,66.9,30.01,NNE,22,20.0,37.0,82,0.00,,,0.00,Weather View 32 v70,2013-06-21 23:44:00,
2013-06-21 13:50:00,72.8,67.0,30.01,NNW,337,28.0,37.0,82,0.00,,,0.00,Weather View 32 v70,2013-06-21 23:50:00,
2013-06-21 13:55:00,72.9,66.7,30.02,NNE,29,11.0,37.0,81,0.00,,,0.00,Weather View 32 v70,2013-06-21 23:55:00,
2013-06-21 14:02:00,72.8,66.6,30.01,NNE,22,26.0,37.0,81,0.00,,,0.00,Weather View 32 v70,2013-06-22 00:02:00,
2013-06-21 14:07:00,72.1,66.3,30.01,NNW,339,20.0,37.0,82,0.00,,,0.00,Weather View 32 v70,2013-06-22 00:07:00,
2013-06-21 14:12:00,72.1,66.3,30.00,NNW,328,23.0,37.0,82,0.00,,,0.00,Weather View 32 v70,2013-06-22 00:12:00,
2013-06-21 14:17:00,72.1,66.6,30.01,North,351,23.0,37.0,83,0.00,,,0.00,Weather View 32 v70,2013-06-22 00:17:00,
2013-06-21 14:22:00,72.0,66.5,30.00,NNW,327,25.0,37.0,83,0.00,,,0.00,Weather View 32 v70,2013-06-22 00:22:00,
2013-06-21 14:28:00,72.1,66.6,30.01,NW,326,25.0,37.0,83,0.00,,,0.00,Weather View 32 v70,2013-06-22 00:28:00,
2013-06-21 14:34:00,72.1,67.0,30.00,North,9,30.0,37.0,84,0.00,,,0.00,Weather View 32 v70,2013-06-22 00:34:00,
2013-06-21 14:40:00,71.9,67.1,29.99,North,351,33.0,37.0,85,0.00,,,0.00,Weather View 32 v70,2013-06-22 00:40:00,
2013-06-21 14:46:00,70.6,67.2,29.99,NNE,16,30.0,37.0,89,0.00,,,0.00,Weather View 32 v70,2013-06-22 00:46:00,
2013-06-21 14:51:00,70.5,67.4,30.01,North,5,30.0,37.0,90,0.00,,,0.00,Weather View 32 v70,2013-06-22 00:51:00,
2013-06-21 14:56:00,70.2,67.1,30.00,NNW,333,26.0,37.0,90,0.00,,,0.00,Weather View 32 v70,2013-06-22 00:56:00,
2013-06-21 15:02:00,70.1,67.0,30.00,ENE,68,20.0,37.0,90,0.00,,,0.00,Weather View 32 v70,2013-06-22 01:02:00,
2013-06-21 15:08:00,70.0,67.2,29.99,NNE,14,27.0,37.0,91,0.00,,,0.00,Weather View 32 v70,2013-06-22 01:08:00,
2013-06-21 15:13:00,69.9,67.1,30.00,NNE,12,25.0,37.0,91,0.00,,,0.00,Weather View 32 v70,2013-06-22 01:13:00,
2013-06-21 15:19:00,69.9,67.1,29.98,North,359,28.0,37.0,91,0.00,,,0.00,Weather View 32 v70,2013-06-22 01:19:00,
2013-06-21 15:24:00,70.1,67.3,30.00,NNW,348,12.0,37.0,91,0.00,,,0.00,Weather View 32 v70,2013-06-22 01:24:00,
2013-06-21 15:29:00,70.1,67.3,29.99,NNW,342,32.0,37.0,91,0.00,,,0.00,Weather View 32 v70,2013-06-22 01:29:00,
2013-06-21 15:34:00,70.2,67.4,29.99,WNW,292,10.0,37.0,91,0.00,,,0.00,Weather View 32 v70,2013-06-22 01:34:00,
2013-06-21 15:40:00,70.3,67.2,29.99,North,360,24.0,37.0,90,0.00,,,0.00,Weather View 32 v70,2013-06-22 01:40:00,
2013-06-21 15:45:00,70.4,67.3,29.99,NNE,26,15.0,37.0,90,0.00,,,0.00,Weather View 32 v70,2013-06-22 01:45:00,
2013-06-21 15:50:00,70.5,67.4,30.00,North,355,14.0,35.0,90,0.00,,,0.00,Weather View 32 v70,2013-06-22 01:50:00,
2013-06-21 15:56:00,70.5,67.1,29.99,North,1,28.0,34.0,89,0.00,,,0.00,Weather View 32 v70,2013-06-22 01:56:00,
2013-06-21 16:01:00,70.7,66.6,29.99,NNW,330,27.0,34.0,87,0.00,,,0.00,Weather View 32 v70,2013-06-22 02:01:00,
2013-06-21 16:07:00,71.5,66.7,29.99,NNE,14,16.0,34.0,85,0.00,,,0.00,Weather View 32 v70,2013-06-22 02:07:00,
2013-06-21 16:12:00,71.9,66.4,29.97,North,5,27.0,34.0,83,0.00,,,0.00,Weather View 32 v70,2013-06-22 02:12:00,
2013-06-21 16:15:00,72.1,66.6,29.97,NNW,343,36.0,36.0,83,0.00,,,0.00,Weather View 32 v70,2013-06-22 02:15:00,
2013-06-21 16:20:00,72.4,66.6,29.98,North,359,30.0,36.0,82,0.00,,,0.00,Weather View 32 v70,2013-06-22 02:20:00,
2013-06-21 16:27:00,71.6,66.8,29.98,North,358,23.0,39.0,85,0.00,,,0.00,Weather View 32 v70,2013-06-22 02:27:00,
2013-06-21 16:32:00,70.7,66.6,30.00,North,5,30.0,40.0,87,0.00,,,0.00,Weather View 32 v70,2013-06-22 02:32:00,
2013-06-21 16:38:00,70.1,66.7,29.99,North,4,21.0,40.0,89,0.00,,,0.00,Weather View 32 v70,2013-06-22 02:38:00,
2013-06-21 16:43:00,69.6,66.5,29.99,North,354,29.0,40.0,90,0.00,,,0.00,Weather View 32 v70,2013-06-22 02:43:00,
2013-06-21 16:49:00,69.4,66.0,30.00,NNW,337,24.0,40.0,89,0.00,,,0.00,Weather View 32 v70,2013-06-22 02:49:00,
2013-06-21 16:50:00,69.5,65.8,29.99,North,352,24.0,40.0,88,0.00,,,0.00,Weather View 32 v70,2013-06-22 02:50:00,
2013-06-21 16:54:00,69.9,65.8,29.99,NNW,341,26.0,40.0,87,0.00,,,0.00,Weather View 32 v70,2013-06-22 02:54:00,
2013-06-21 17:02:00,70.6,65.9,29.99,NNE,26,22.0,40.0,85,0.00,,,0.00,Weather View 32 v70,2013-06-22 03:02:00,
2013-06-21 17:07:00,70.9,65.8,30.00,North,355,17.0,40.0,84,0.00,,,0.00,Weather View 32 v70,2013-06-22 03:07:00,
2013-06-21 17:12:00,71.0,65.9,30.00,NNW,345,20.0,40.0,84,0.00,,,0.00,Weather View 32 v70,2013-06-22 03:12:00,
2013-06-21 17:18:00,71.1,66.0,30.00,NW,320,21.0,40.0,84,0.00,,,0.00,Weather View 32 v70,2013-06-22 03:18:00,
2013-06-21 17:24:00,71.4,65.9,29.98,NNW,340,30.0,43.0,83,0.00,,,0.00,Weather View 32 v70,2013-06-22 03:24:00,
2013-06-21 17:25:00,71.3,65.8,29.98,NNW,337,8.0,43.0,83,0.00,,,0.00,Weather View 32 v70,2013-06-22 03:25:00,
2013-06-21 17:29:00,71.3,65.8,30.00,NW,305,24.0,43.0,83,0.00,,,0.00,Weather View 32 v70,2013-06-22 03:29:00,
2013-06-21 17:30:00,71.4,65.9,30.00,NNW,334,28.0,43.0,83,0.00,,,0.00,Weather View 32 v70,2013-06-22 03:30:00,
2013-06-21 17:34:00,71.5,66.0,30.00,North,349,18.0,43.0,83,0.00,,,0.00,Weather View 32 v70,2013-06-22 03:34:00,
2013-06-21 17:35:00,71.6,66.1,30.00,North,4,16.0,43.0,83,0.00,,,0.00,Weather View 32 v70,2013-06-22 03:35:00,
2013-06-21 17:40:00,71.8,65.6,30.00,NNW,348,9.0,43.0,81,0.00,,,0.00,Weather View 32 v70,2013-06-22 03:40:00,
2013-06-21 17:45:00,72.0,65.8,30.00,NNW,329,30.0,43.0,81,0.00,,,0.00,Weather View 32 v70,2013-06-22 03:45:00,
2013-06-21 17:50:00,72.1,65.2,29.99,NNW,337,28.0,43.0,79,0.00,,,0.00,Weather View 32 v70,2013-06-22 03:50:00,
2013-06-21 17:55:00,72.4,65.5,30.00,NW,322,17.0,43.0,79,0.00,,,0.00,Weather View 32 v70,2013-06-22 03:55:00,
2013-06-21 18:00:00,72.7,65.0,29.98,WNW,301,24.0,43.0,77,0.00,,,0.00,Weather View 32 v70,2013-06-22 04:00:00,
2013-06-21 18:01:00,72.8,65.1,29.99,NW,318,25.0,43.0,77,0.00,,,0.00,Weather View 32 v70,2013-06-22 04:01:00,
2013-06-21 18:06:00,72.5,65.2,29.98,NNW,328,21.0,43.0,78,0.00,,,0.00,Weather View 32 v70,2013-06-22 04:06:00,
2013-06-21 18:11:00,71.9,65.7,29.99,NNW,334,26.0,43.0,81,0.00,,,0.00,Weather View 32 v70,2013-06-22 04:11:00,
2013-06-21 18:16:00,70.9,66.1,30.00,NNE,12,24.0,43.0,85,0.00,,,0.00,Weather View 32 v70,2013-06-22 04:16:00,
2013-06-21 18:21:00,70.2,65.8,30.00,NNW,327,17.0,43.0,86,0.00,,,0.00,Weather View 32 v70,2013-06-22 04:21:00,
2013-06-21 18:26:00,70.0,65.6,30.01,NNW,334,16.0,38.0,86,0.00,,,0.00,Weather View 32 v70,2013-06-22 04:26:00,
2013-06-21 18:31:00,70.3,65.6,30.01,NNW,345,24.0,38.0,85,0.00,,,0.00,Weather View 32 v70,2013-06-22 04:31:00,
2013-06-21 18:36:00,70.5,65.4,30.01,North,354,15.0,38.0,84,0.00,,,0.00,Weather View 32 v70,2013-06-22 04:36:00,
2013-06-21 18:41:00,71.0,65.2,30.01,North,350,23.0,38.0,82,0.00,,,0.00,Weather View 32 v70,2013-06-22 04:41:00,
2013-06-21 18:46:00,71.4,65.2,30.01,North,357,31.0,38.0,81,0.00,,,0.00,Weather View 32 v70,2013-06-22 04:46:00,
2013-06-21 18:51:00,71.9,64.6,30.01,North,357,29.0,38.0,78,0.00,,,0.00,Weather View 32 v70,2013-06-22 04:51:00,
2013-06-21 18:56:00,71.7,64.4,29.99,North,6,27.0,41.0,78,0.00,,,0.00,Weather View 32 v70,2013-06-22 04:56:00,
2013-06-21 19:01:00,71.0,64.9,30.00,NNW,347,37.0,41.0,81,0.00,,,0.00,Weather View 32 v70,2013-06-22 05:01:00,
2013-06-21 19:06:00,70.6,65.2,29.98,North,357,40.0,44.0,83,0.00,,,0.00,Weather View 32 v70,2013-06-22 05:06:00,
2013-06-21 19:11:00,70.3,65.2,30.01,North,353,26.0,44.0,84,0.00,,,0.00,Weather View 32 v70,2013-06-22 05:11:00,
2013-06-21 19:16:00,70.1,65.4,29.99,NNE,20,18.0,44.0,85,0.00,,,0.00,Weather View 32 v70,2013-06-22 05:16:00,
2013-06-21 19:21:00,70.0,65.3,30.01,NNW,335,24.0,44.0,85,0.00,,,0.00,Weather View 32 v70,2013-06-22 05:21:00,
2013-06-21 19:26:00,70.0,65.3,30.01,East,80,28.0,44.0,85,0.00,,,0.00,Weather View 32 v70,2013-06-22 05:26:00,
2013-06-21 19:31:00,70.1,65.0,30.00,NNE,13,23.0,44.0,84,0.00,,,0.00,Weather View 32 v70,2013-06-22 05:31:00,
2013-06-21 19:36:00,70.2,64.8,30.01,North,353,17.0,44.0,83,0.00,,,0.00,Weather View 32 v70,2013-06-22 05:36:00,
2013-06-21 19:41:00,70.6,64.8,30.01,NNW,341,31.0,44.0,82,0.00,,,0.00,Weather View 32 v70,2013-06-22 05:41:00,
2013-06-21 19:46:00,70.7,64.9,30.03,NNW,342,36.0,44.0,82,0.00,,,0.00,Weather View 32 v70,2013-06-22 05:46:00,
2013-06-21 19:51:00,70.8,64.7,30.02,NNW,336,19.0,44.0,81,0.00,,,0.00,Weather View 32 v70,2013-06-22 05:51:00,
2013-06-21 19:56:00,70.8,64.7,30.03,NNW,329,29.0,44.0,81,0.00,,,0.00,Weather View 32 v70,2013-06-22 05:56:00,
2013-06-21 20:01:00,70.9,64.4,30.02,NNW,338,26.0,44.0,80,0.00,,,0.00,Weather View 32 v70,2013-06-22 06:01:00,
2013-06-21 20:06:00,71.1,64.2,30.03,NNW,346,32.0,42.0,79,0.00,,,0.00,Weather View 32 v70,2013-06-22 06:06:00,
2013-06-21 20:11:00,71.4,64.5,30.03,North,351,25.0,42.0,79,0.00,,,0.00,Weather View 32 v70,2013-06-22 06:11:00,
2013-06-21 20:16:00,71.3,64.4,30.01,NNW,348,32.0,42.0,79,0.00,,,0.00,Weather View 32 v70,2013-06-22 06:16:00,
2013-06-21 20:21:00,71.2,64.3,30.05,NNW,337,19.0,42.0,79,0.00,,,0.00,Weather View 32 v70,2013-06-22 06:21:00,
2013-06-21 20:26:00,71.3,64.1,30.05,NNW,334,20.0,41.0,78,0.00,,,0.00,Weather View 32 v70,2013-06-22 06:26:00,
2013-06-21 20:31:00,71.4,63.8,30.03,NNW,347,21.0,41.0,77,0.00,,,0.00,Weather View 32 v70,2013-06-22 06:31:00,
2013-06-21 20:36:00,71.4,63.8,30.04,NNW,346,34.0,41.0,77,0.00,,,0.00,Weather View 32 v70,2013-06-22 06:36:00,
2013-06-21 20:41:00,71.5,63.9,30.05,North,355,22.0,41.0,77,0.00,,,0.00,Weather View 32 v70,2013-06-22 06:41:00,
2013-06-21 20:46:00,71.7,64.1,30.04,North,352,34.0,41.0,77,0.00,,,0.00,Weather View 32 v70,2013-06-22 06:46:00,
2013-06-21 20:51:00,71.7,64.1,30.06,NNE,15,21.0,41.0,77,0.00,,,0.00,Weather View 32 v70,2013-06-22 06:51:00,
2013-06-21 20:56:00,71.8,64.5,30.06,North,5,23.0,41.0,78,0.00,,,0.00,Weather View 32 v70,2013-06-22 06:56:00,
2013-06-21 21:01:00,71.9,64.6,30.05,North,353,19.0,40.0,78,0.00,,,0.00,Weather View 32 v70,2013-06-22 07:01:00,
2013-06-21 21:06:00,72.0,64.4,30.04,NNE,22,36.0,40.0,77,0.00,,,0.00,Weather View 32 v70,2013-06-22 07:06:00,
2013-06-21 21:11:00,71.9,64.3,30.06,North,1,27.0,40.0,77,0.00,,,0.00,Weather View 32 v70,2013-06-22 07:11:00,
2013-06-21 21:16:00,71.5,64.6,30.06,NNE,19,13.0,40.0,79,0.00,,,0.00,Weather View 32 v70,2013-06-22 07:16:00,
2013-06-21 21:21:00,71.6,64.4,30.06,NNW,334,15.0,40.0,78,0.00,,,0.00,Weather View 32 v70,2013-06-22 07:21:00,
2013-06-21 21:26:00,71.7,64.1,30.06,NNW,334,22.0,40.0,77,0.00,,,0.00,Weather View 32 v70,2013-06-22 07:26:00,
2013-06-21 21:31:00,71.8,64.5,30.06,North,354,19.0,40.0,78,0.00,,,0.00,Weather View 32 v70,2013-06-22 07:31:00,
2013-06-21 21:36:00,71.7,64.8,30.06,North,3,20.0,40.0,79,0.00,,,0.00,Weather View 32 v70,2013-06-22 07:36:00,
2013-06-21 21:41:00,71.5,64.6,30.06,North,350,15.0,40.0,79,0.00,,,0.00,Weather View 32 v70,2013-06-22 07:41:00,
2013-06-21 21:46:00,71.5,64.6,30.06,NNW,348,36.0,40.0,79,0.00,,,0.00,Weather View 32 v70,2013-06-22 07:46:00,
2013-06-21 21:51:00,71.6,64.7,30.05,NW,307,18.0,40.0,79,0.00,,,0.00,Weather View 32 v70,2013-06-22 07:51:00,
2013-06-21 21:56:00,71.6,64.7,30.06,NNW,346,23.0,40.0,79,0.00,,,0.00,Weather View 32 v70,2013-06-22 07:56:00,
2013-06-21 22:01:00,71.3,65.1,30.06,NNW,343,24.0,40.0,81,0.00,,,0.00,Weather View 32 v70,2013-06-22 08:01:00,
2013-06-21 22:06:00,71.1,64.9,30.07,NNE,19,16.0,40.0,81,0.00,,,0.00,Weather View 32 v70,2013-06-22 08:06:00,
2013-06-21 22:12:00,70.9,64.8,30.07,NNW,339,23.0,39.0,81,0.00,,,0.00,Weather View 32 v70,2013-06-22 08:12:00,
2013-06-21 22:17:00,71.3,63.7,30.05,NNE,13,21.0,39.0,77,0.00,,,0.00,Weather View 32 v70,2013-06-22 08:17:00,
2013-06-21 22:22:00,71.7,63.3,30.06,North,351,25.0,39.0,75,0.00,,,0.00,Weather View 32 v70,2013-06-22 08:22:00,
2013-06-21 22:27:00,71.8,63.8,30.06,North,353,36.0,39.0,76,0.00,,,0.00,Weather View 32 v70,2013-06-22 08:27:00,
2013-06-21 22:32:00,71.5,63.9,30.06,NNW,329,31.0,39.0,77,0.00,,,0.00,Weather View 32 v70,2013-06-22 08:32:00,
2013-06-21 22:37:00,71.7,63.7,30.04,NNE,14,20.0,39.0,76,0.00,,,0.00,Weather View 32 v70,2013-06-22 08:37:00,
2013-06-21 22:42:00,71.6,63.6,30.05,NNW,333,23.0,41.0,76,0.00,,,0.00,Weather View 32 v70,2013-06-22 08:42:00,
2013-06-21 22:47:00,71.7,64.1,30.05,North,351,22.0,44.0,77,0.00,,,0.00,Weather View 32 v70,2013-06-22 08:47:00,
2013-06-21 22:52:00,71.1,64.6,30.04,NNW,338,23.0,44.0,80,0.00,,,0.00,Weather View 32 v70,2013-06-22 08:52:00,
2013-06-21 22:57:00,70.7,64.9,30.04,North,357,35.0,44.0,82,0.00,,,0.00,Weather View 32 v70,2013-06-22 08:57:00,
2013-06-21 23:02:00,70.1,65.0,30.04,North,352,26.0,44.0,84,0.00,,,0.00,Weather View 32 v70,2013-06-22 09:02:00,
2013-06-21 23:07:00,69.8,64.7,30.06,NNW,336,25.0,44.0,84,0.00,,,0.00,Weather View 32 v70,2013-06-22 09:07:00,
2013-06-21 23:12:00,69.9,65.2,30.05,North,354,26.0,44.0,85,0.00,,,0.00,Weather View 32 v70,2013-06-22 09:12:00,
2013-06-21 23:17:00,69.8,65.1,30.06,North,1,35.0,44.0,85,0.00,,,0.00,Weather View 32 v70,2013-06-22 09:17:00,
2013-06-21 23:22:00,69.8,65.4,30.05,NNW,334,32.0,44.0,86,0.00,,,0.00,Weather View 32 v70,2013-06-22 09:22:00,
2013-06-21 23:27:00,69.7,65.3,30.05,North,349,24.0,44.0,86,0.00,,,0.00,Weather View 32 v70,2013-06-22 09:27:00,
2013-06-21 23:32:00,69.9,65.5,30.03,NE,35,33.0,44.0,86,0.00,,,0.00,Weather View 32 v70,2013-06-22 09:32:00,
2013-06-21 23:37:00,70.0,65.3,30.05,North,359,33.0,44.0,85,0.00,,,0.00,Weather View 32 v70,2013-06-22 09:37:00,
2013-06-21 23:42:00,70.2,65.1,30.05,NNW,341,21.0,44.0,84,0.00,,,0.00,Weather View 32 v70,2013-06-22 09:42:00,
2013-06-21 23:47:00,70.3,64.9,30.05,NNW,337,35.0,44.0,83,0.00,,,0.00,Weather View 32 v70,2013-06-22 09:47:00,
2013-06-21 23:52:00,70.4,64.6,30.06,North,356,22.0,44.0,82,0.00,,,0.00,Weather View 32 v70,2013-06-22 09:52:00,
2013-06-21 23:57:00,70.4,64.3,30.06,North,355,19.0,42.0,81,0.00,,,0.00,Weather View 32 v70,2013-06-22 09:57:00,